sensor_id;sensor_type;location;lat;lon;timestamp;P1;durP1;ratioP1;P2;durP2;ratioP2
55417;SDS011;41287;47.554;7.844;2022-10-04T00:01:49;5.07;;;1.88;;
55417;SDS011;41287;47.554;7.844;2022-10-04T00:07:43;6.13;;;1.90;;
55417;SDS011;41287;47.554;7.844;2022-10-04T00:10:22;5.13;;;2.03;;
55417;SDS011;41287;47.554;7.844;2022-10-04T00:12:56;5.55;;;1.80;;
55417;SDS011;41287;47.554;7.844;2022-10-04T00:15:24;3.88;;;1.77;;
55417;SDS011;41287;47.554;7.844;2022-10-04T00:25:49;3.45;;;1.40;;
55417;SDS011;41287;47.554;7.844;2022-10-04T00:39:03;6.73;;;2.17;;
55417;SDS011;41287;47.554;7.844;2022-10-04T00:44:14;3.17;;;1.90;;
55417;SDS011;41287;47.554;7.844;2022-10-04T00:46:54;4.70;;;1.85;;
55417;SDS011;41287;47.554;7.844;2022-10-04T00:49:23;5.78;;;2.08;;
55417;SDS011;41287;47.554;7.844;2022-10-04T00:54:31;4.22;;;1.73;;
55417;SDS011;41287;47.554;7.844;2022-10-04T00:57:10;5.38;;;1.92;;
55417;SDS011;41287;47.554;7.844;2022-10-04T01:02:14;3.65;;;1.77;;
55417;SDS011;41287;47.554;7.844;2022-10-04T01:07:27;2.50;;;1.50;;
55417;SDS011;41287;47.554;7.844;2022-10-04T01:10:19;3.85;;;1.58;;
55417;SDS011;41287;47.554;7.844;2022-10-04T01:12:48;3.38;;;1.38;;
55417;SDS011;41287;47.554;7.844;2022-10-04T01:20:59;3.63;;;1.60;;
55417;SDS011;41287;47.554;7.844;2022-10-04T01:29:38;5.28;;;1.65;;
55417;SDS011;41287;47.554;7.844;2022-10-04T01:31:44;4.38;;;1.50;;
55417;SDS011;41287;47.554;7.844;2022-10-04T01:34:13;2.53;;;1.30;;
55417;SDS011;41287;47.554;7.844;2022-10-04T01:36:40;2.95;;;1.40;;
55417;SDS011;41287;47.554;7.844;2022-10-04T01:39:06;3.90;;;1.60;;
55417;SDS011;41287;47.554;7.844;2022-10-04T01:41:45;3.92;;;1.98;;
55417;SDS011;41287;47.554;7.844;2022-10-04T01:44:23;4.40;;;1.50;;
55417;SDS011;41287;47.554;7.844;2022-10-04T01:46:51;2.97;;;1.60;;
55417;SDS011;41287;47.554;7.844;2022-10-04T01:49:22;4.60;;;1.80;;
55417;SDS011;41287;47.554;7.844;2022-10-04T01:52:03;3.47;;;1.90;;
55417;SDS011;41287;47.554;7.844;2022-10-04T01:54:44;3.65;;;1.83;;
55417;SDS011;41287;47.554;7.844;2022-10-04T01:57:18;3.97;;;1.73;;
55417;SDS011;41287;47.554;7.844;2022-10-04T02:05:01;2.35;;;1.35;;
55417;SDS011;41287;47.554;7.844;2022-10-04T02:07:30;5.03;;;1.73;;
55417;SDS011;41287;47.554;7.844;2022-10-04T02:09:58;3.70;;;1.40;;
55417;SDS011;41287;47.554;7.844;2022-10-04T02:12:27;1.65;;;1.13;;
55417;SDS011;41287;47.554;7.844;2022-10-04T02:14:59;4.20;;;1.52;;
55417;SDS011;41287;47.554;7.844;2022-10-04T02:17:27;2.00;;;1.10;;
55417;SDS011;41287;47.554;7.844;2022-10-04T02:19:56;4.03;;;1.80;;
55417;SDS011;41287;47.554;7.844;2022-10-04T02:22:23;3.58;;;1.25;;
55417;SDS011;41287;47.554;7.844;2022-10-04T02:24:50;2.72;;;1.20;;
55417;SDS011;41287;47.554;7.844;2022-10-04T02:27:18;3.60;;;1.33;;
55417;SDS011;41287;47.554;7.844;2022-10-04T02:29:43;2.28;;;1.33;;
55417;SDS011;41287;47.554;7.844;2022-10-04T02:32:08;2.70;;;1.38;;
55417;SDS011;41287;47.554;7.844;2022-10-04T02:34:54;2.67;;;1.30;;
55417;SDS011;41287;47.554;7.844;2022-10-04T02:37:22;2.53;;;1.30;;
55417;SDS011;41287;47.554;7.844;2022-10-04T02:40:02;1.75;;;1.30;;
55417;SDS011;41287;47.554;7.844;2022-10-04T02:42:36;4.60;;;1.70;;
55417;SDS011;41287;47.554;7.844;2022-10-04T02:45:12;2.45;;;1.50;;
55417;SDS011;41287;47.554;7.844;2022-10-04T02:47:48;3.05;;;1.20;;
55417;SDS011;41287;47.554;7.844;2022-10-04T02:50:29;3.80;;;1.20;;
55417;SDS011;41287;47.554;7.844;2022-10-04T02:55:40;3.33;;;1.30;;
55417;SDS011;41287;47.554;7.844;2022-10-04T02:58:08;3.80;;;1.25;;
55417;SDS011;41287;47.554;7.844;2022-10-04T03:00:49;3.42;;;1.20;;
55417;SDS011;41287;47.554;7.844;2022-10-04T03:03:28;1.83;;;1.05;;
55417;SDS011;41287;47.554;7.844;2022-10-04T03:06:02;2.85;;;1.30;;
55417;SDS011;41287;47.554;7.844;2022-10-04T03:08:29;2.55;;;1.25;;
55417;SDS011;41287;47.554;7.844;2022-10-04T03:10:58;1.67;;;1.00;;
55417;SDS011;41287;47.554;7.844;2022-10-04T03:13:26;1.30;;;1.00;;
55417;SDS011;41287;47.554;7.844;2022-10-04T03:15:52;2.63;;;1.40;;
55417;SDS011;41287;47.554;7.844;2022-10-04T03:18:18;3.22;;;1.42;;
55417;SDS011;41287;47.554;7.844;2022-10-04T03:20:44;4.68;;;1.65;;
55417;SDS011;41287;47.554;7.844;2022-10-04T03:23:12;2.88;;;1.42;;
55417;SDS011;41287;47.554;7.844;2022-10-04T03:25:42;3.20;;;1.20;;
55417;SDS011;41287;47.554;7.844;2022-10-04T03:28:14;2.45;;;1.33;;
55417;SDS011;41287;47.554;7.844;2022-10-04T03:30:44;2.85;;;1.42;;
55417;SDS011;41287;47.554;7.844;2022-10-04T03:33:15;3.03;;;1.15;;
55417;SDS011;41287;47.554;7.844;2022-10-04T03:35:43;3.67;;;1.20;;
55417;SDS011;41287;47.554;7.844;2022-10-04T03:38:13;2.05;;;1.13;;
55417;SDS011;41287;47.554;7.844;2022-10-04T03:40:40;2.75;;;1.30;;
55417;SDS011;41287;47.554;7.844;2022-10-04T03:43:10;2.20;;;1.02;;
55417;SDS011;41287;47.554;7.844;2022-10-04T03:45:37;3.50;;;1.48;;
55417;SDS011;41287;47.554;7.844;2022-10-04T03:48:06;3.00;;;1.20;;
55417;SDS011;41287;47.554;7.844;2022-10-04T03:50:37;2.35;;;1.30;;
55417;SDS011;41287;47.554;7.844;2022-10-04T03:53:29;4.38;;;1.30;;
55417;SDS011;41287;47.554;7.844;2022-10-04T03:55:59;3.28;;;1.40;;
55417;SDS011;41287;47.554;7.844;2022-10-04T03:58:27;1.70;;;1.20;;
55417;SDS011;41287;47.554;7.844;2022-10-04T04:03:22;1.88;;;1.20;;
55417;SDS011;41287;47.554;7.844;2022-10-04T04:05:52;2.90;;;1.40;;
55417;SDS011;41287;47.554;7.844;2022-10-04T04:08:33;2.15;;;1.38;;
55417;SDS011;41287;47.554;7.844;2022-10-04T04:11:05;2.17;;;1.25;;
55417;SDS011;41287;47.554;7.844;2022-10-04T04:13:47;3.33;;;1.30;;
55417;SDS011;41287;47.554;7.844;2022-10-04T04:16:14;1.92;;;1.30;;
55417;SDS011;41287;47.554;7.844;2022-10-04T04:18:42;10.23;;;1.40;;
55417;SDS011;41287;47.554;7.844;2022-10-04T04:21:09;4.28;;;1.40;;
55417;SDS011;41287;47.554;7.844;2022-10-04T04:23:46;5.57;;;1.25;;
55417;SDS011;41287;47.554;7.844;2022-10-04T04:29:01;1.95;;;0.93;;
55417;SDS011;41287;47.554;7.844;2022-10-04T04:34:14;2.53;;;1.25;;
55417;SDS011;41287;47.554;7.844;2022-10-04T04:36:43;1.98;;;0.95;;
55417;SDS011;41287;47.554;7.844;2022-10-04T04:39:19;1.83;;;0.88;;
55417;SDS011;41287;47.554;7.844;2022-10-04T04:41:59;1.23;;;0.90;;
55417;SDS011;41287;47.554;7.844;2022-10-04T04:44:38;2.08;;;1.25;;
55417;SDS011;41287;47.554;7.844;2022-10-04T04:49:54;1.98;;;1.23;;
55417;SDS011;41287;47.554;7.844;2022-10-04T04:52:23;1.92;;;1.20;;
55417;SDS011;41287;47.554;7.844;2022-10-04T04:54:52;1.77;;;1.20;;
55417;SDS011;41287;47.554;7.844;2022-10-04T04:57:19;2.03;;;1.33;;
55417;SDS011;41287;47.554;7.844;2022-10-04T04:59:46;2.55;;;1.60;;
55417;SDS011;41287;47.554;7.844;2022-10-04T05:05:21;3.30;;;1.98;;
55417;SDS011;41287;47.554;7.844;2022-10-04T05:07:48;3.58;;;1.75;;
55417;SDS011;41287;47.554;7.844;2022-10-04T05:10:18;2.85;;;1.60;;
55417;SDS011;41287;47.554;7.844;2022-10-04T05:12:55;4.43;;;2.22;;
55417;SDS011;41287;47.554;7.844;2022-10-04T05:15:27;4.60;;;1.98;;
55417;SDS011;41287;47.554;7.844;2022-10-04T05:17:57;3.38;;;1.80;;
55417;SDS011;41287;47.554;7.844;2022-10-04T05:20:23;4.15;;;1.83;;
55417;SDS011;41287;47.554;7.844;2022-10-04T05:22:49;4.70;;;2.15;;
55417;SDS011;41287;47.554;7.844;2022-10-04T05:25:22;5.13;;;2.13;;
55417;SDS011;41287;47.554;7.844;2022-10-04T05:27:52;4.90;;;2.22;;
55417;SDS011;41287;47.554;7.844;2022-10-04T05:30:36;4.65;;;2.28;;
55417;SDS011;41287;47.554;7.844;2022-10-04T05:33:45;9.98;;;2.38;;
55417;SDS011;41287;47.554;7.844;2022-10-04T05:38:42;6.53;;;2.40;;
55417;SDS011;41287;47.554;7.844;2022-10-04T05:43:44;5.43;;;2.42;;
55417;SDS011;41287;47.554;7.844;2022-10-04T05:46:14;7.25;;;2.75;;
55417;SDS011;41287;47.554;7.844;2022-10-04T05:48:45;5.43;;;2.33;;
55417;SDS011;41287;47.554;7.844;2022-10-04T05:51:19;9.20;;;2.78;;
55417;SDS011;41287;47.554;7.844;2022-10-04T05:53:47;5.75;;;2.58;;
55417;SDS011;41287;47.554;7.844;2022-10-04T06:02:05;3.58;;;2.45;;
55417;SDS011;41287;47.554;7.844;2022-10-04T06:04:58;3.85;;;2.33;;
55417;SDS011;41287;47.554;7.844;2022-10-04T06:07:37;9.50;;;2.63;;
55417;SDS011;41287;47.554;7.844;2022-10-04T06:23:16;8.25;;;2.50;;
55417;SDS011;41287;47.554;7.844;2022-10-04T06:25:53;5.13;;;2.10;;
55417;SDS011;41287;47.554;7.844;2022-10-04T06:44:51;5.55;;;1.80;;
55417;SDS011;41287;47.554;7.844;2022-10-04T06:47:29;5.82;;;2.22;;
55417;SDS011;41287;47.554;7.844;2022-10-04T06:58:23;6.35;;;2.10;;
55417;SDS011;41287;47.554;7.844;2022-10-04T07:01:18;3.47;;;1.87;;
55417;SDS011;41287;47.554;7.844;2022-10-04T07:12:51;3.33;;;1.92;;
55417;SDS011;41287;47.554;7.844;2022-10-04T07:15:29;4.68;;;2.10;;
55417;SDS011;41287;47.554;7.844;2022-10-04T07:18:07;4.93;;;1.95;;
55417;SDS011;41287;47.554;7.844;2022-10-04T07:20:39;2.55;;;1.55;;
55417;SDS011;41287;47.554;7.844;2022-10-04T07:23:13;4.55;;;2.25;;
55417;SDS011;41287;47.554;7.844;2022-10-04T07:25:50;5.80;;;2.10;;
55417;SDS011;41287;47.554;7.844;2022-10-04T07:29:02;7.57;;;2.13;;
55417;SDS011;41287;47.554;7.844;2022-10-04T07:31:43;4.47;;;2.00;;
55417;SDS011;41287;47.554;7.844;2022-10-04T07:34:13;4.00;;;2.05;;
55417;SDS011;41287;47.554;7.844;2022-10-04T07:36:49;4.78;;;2.00;;
55417;SDS011;41287;47.554;7.844;2022-10-04T07:41:55;3.72;;;1.90;;
55417;SDS011;41287;47.554;7.844;2022-10-04T07:44:31;3.88;;;1.70;;
55417;SDS011;41287;47.554;7.844;2022-10-04T07:49:43;5.78;;;1.80;;
55417;SDS011;41287;47.554;7.844;2022-10-04T07:54:49;4.10;;;1.90;;
55417;SDS011;41287;47.554;7.844;2022-10-04T08:00:22;3.92;;;1.77;;
55417;SDS011;41287;47.554;7.844;2022-10-04T08:05:38;3.67;;;1.75;;
55417;SDS011;41287;47.554;7.844;2022-10-04T08:10:46;3.43;;;1.70;;
55417;SDS011;41287;47.554;7.844;2022-10-04T08:13:32;3.90;;;1.77;;
55417;SDS011;41287;47.554;7.844;2022-10-04T08:25:17;3.22;;;1.77;;
55417;SDS011;41287;47.554;7.844;2022-10-04T08:36:55;3.20;;;1.63;;
55417;SDS011;41287;47.554;7.844;2022-10-04T08:39:55;4.72;;;2.03;;
55417;SDS011;41287;47.554;7.844;2022-10-04T08:51:14;4.10;;;2.35;;
55417;SDS011;41287;47.554;7.844;2022-10-04T09:05:37;3.15;;;1.70;;
55417;SDS011;41287;47.554;7.844;2022-10-04T09:11:21;3.42;;;1.85;;
55417;SDS011;41287;47.554;7.844;2022-10-04T09:13:45;2.58;;;1.67;;
55417;SDS011;41287;47.554;7.844;2022-10-04T09:22:18;4.93;;;1.63;;
55417;SDS011;41287;47.554;7.844;2022-10-04T09:27:46;2.67;;;1.80;;
55417;SDS011;41287;47.554;7.844;2022-10-04T09:30:17;2.75;;;1.60;;
55417;SDS011;41287;47.554;7.844;2022-10-04T09:35:42;3.08;;;1.65;;
55417;SDS011;41287;47.554;7.844;2022-10-04T09:57:40;2.60;;;1.17;;
55417;SDS011;41287;47.554;7.844;2022-10-04T10:00:25;2.65;;;1.60;;
55417;SDS011;41287;47.554;7.844;2022-10-04T10:06:25;3.80;;;1.63;;
55417;SDS011;41287;47.554;7.844;2022-10-04T10:09:12;3.03;;;1.40;;
55417;SDS011;41287;47.554;7.844;2022-10-04T10:18:25;1.83;;;1.60;;
55417;SDS011;41287;47.554;7.844;2022-10-04T10:23:34;2.83;;;1.75;;
55417;SDS011;41287;47.554;7.844;2022-10-04T10:32:01;2.95;;;1.60;;
55417;SDS011;41287;47.554;7.844;2022-10-04T10:34:48;2.63;;;1.50;;
55417;SDS011;41287;47.554;7.844;2022-10-04T10:37:30;1.90;;;1.50;;
55417;SDS011;41287;47.554;7.844;2022-10-04T10:49:07;1.98;;;1.30;;
55417;SDS011;41287;47.554;7.844;2022-10-04T10:54:43;2.00;;;1.50;;
55417;SDS011;41287;47.554;7.844;2022-10-04T11:25:44;2.53;;;1.50;;
55417;SDS011;41287;47.554;7.844;2022-10-04T11:54:05;4.07;;;1.85;;
55417;SDS011;41287;47.554;7.844;2022-10-04T11:57:07;1.48;;;1.17;;
55417;SDS011;41287;47.554;7.844;2022-10-04T12:00:00;2.75;;;1.40;;
55417;SDS011;41287;47.554;7.844;2022-10-04T12:02:50;2.85;;;1.52;;
55417;SDS011;41287;47.554;7.844;2022-10-04T12:26:39;1.73;;;1.30;;
55417;SDS011;41287;47.554;7.844;2022-10-04T12:32:22;2.15;;;1.20;;
55417;SDS011;41287;47.554;7.844;2022-10-04T12:43:58;2.35;;;1.40;;
55417;SDS011;41287;47.554;7.844;2022-10-04T12:49:45;1.15;;;1.05;;
55417;SDS011;41287;47.554;7.844;2022-10-04T12:52:21;2.25;;;1.48;;
55417;SDS011;41287;47.554;7.844;2022-10-04T12:58:00;2.92;;;1.23;;
55417;SDS011;41287;47.554;7.844;2022-10-04T13:00:32;1.67;;;1.20;;
55417;SDS011;41287;47.554;7.844;2022-10-04T13:08:49;3.30;;;1.33;;
55417;SDS011;41287;47.554;7.844;2022-10-04T13:16:55;1.98;;;1.30;;
55417;SDS011;41287;47.554;7.844;2022-10-04T13:22:31;2.95;;;1.20;;
55417;SDS011;41287;47.554;7.844;2022-10-04T13:25:18;1.15;;;0.90;;
55417;SDS011;41287;47.554;7.844;2022-10-04T13:30:35;2.38;;;1.30;;
55417;SDS011;41287;47.554;7.844;2022-10-04T13:35:56;2.03;;;1.25;;
55417;SDS011;41287;47.554;7.844;2022-10-04T13:38:47;2.05;;;1.23;;
55417;SDS011;41287;47.554;7.844;2022-10-04T13:44:25;1.35;;;1.10;;
55417;SDS011;41287;47.554;7.844;2022-10-04T13:47:18;2.53;;;1.45;;
55417;SDS011;41287;47.554;7.844;2022-10-04T13:55:27;1.98;;;1.30;;
55417;SDS011;41287;47.554;7.844;2022-10-04T14:06:24;2.05;;;1.30;;
55417;SDS011;41287;47.554;7.844;2022-10-04T14:09:17;1.73;;;1.05;;
55417;SDS011;41287;47.554;7.844;2022-10-04T14:51:42;1.35;;;1.00;;
55417;SDS011;41287;47.554;7.844;2022-10-04T15:02:18;2.13;;;1.23;;
55417;SDS011;41287;47.554;7.844;2022-10-04T15:05:02;1.55;;;1.30;;
55417;SDS011;41287;47.554;7.844;2022-10-04T15:07:51;1.30;;;0.90;;
55417;SDS011;41287;47.554;7.844;2022-10-04T15:10:26;1.08;;;0.98;;
55417;SDS011;41287;47.554;7.844;2022-10-04T15:13:00;1.92;;;1.00;;
55417;SDS011;41287;47.554;7.844;2022-10-04T15:18:26;1.15;;;0.90;;
55417;SDS011;41287;47.554;7.844;2022-10-04T15:23:53;1.23;;;1.13;;
55417;SDS011;41287;47.554;7.844;2022-10-04T15:28:58;2.58;;;1.20;;
55417;SDS011;41287;47.554;7.844;2022-10-04T15:37:12;1.60;;;1.17;;
55417;SDS011;41287;47.554;7.844;2022-10-04T15:39:59;2.47;;;1.30;;
55417;SDS011;41287;47.554;7.844;2022-10-04T15:42:38;1.27;;;1.17;;
55417;SDS011;41287;47.554;7.844;2022-10-04T15:51:06;1.50;;;1.10;;
55417;SDS011;41287;47.554;7.844;2022-10-04T15:54:02;1.20;;;0.98;;
55417;SDS011;41287;47.554;7.844;2022-10-04T16:04:56;1.58;;;1.20;;
55417;SDS011;41287;47.554;7.844;2022-10-04T16:07:38;1.23;;;1.00;;
55417;SDS011;41287;47.554;7.844;2022-10-04T16:15:39;1.10;;;1.00;;
55417;SDS011;41287;47.554;7.844;2022-10-04T16:31:52;1.23;;;1.00;;
55417;SDS011;41287;47.554;7.844;2022-10-04T16:39:35;1.23;;;1.10;;
55417;SDS011;41287;47.554;7.844;2022-10-04T16:45:25;1.33;;;1.00;;
55417;SDS011;41287;47.554;7.844;2022-10-04T16:47:56;1.40;;;1.00;;
55417;SDS011;41287;47.554;7.844;2022-10-04T16:58:43;1.73;;;1.20;;
55417;SDS011;41287;47.554;7.844;2022-10-04T17:09:24;1.05;;;0.88;;
55417;SDS011;41287;47.554;7.844;2022-10-04T17:12:09;1.42;;;1.15;;
55417;SDS011;41287;47.554;7.844;2022-10-04T17:17:17;1.77;;;1.00;;
55417;SDS011;41287;47.554;7.844;2022-10-04T17:19:49;1.17;;;1.02;;
55417;SDS011;41287;47.554;7.844;2022-10-04T17:25:21;1.20;;;0.80;;
55417;SDS011;41287;47.554;7.844;2022-10-04T17:30:44;3.03;;;1.50;;
55417;SDS011;41287;47.554;7.844;2022-10-04T17:33:30;1.85;;;1.00;;
55417;SDS011;41287;47.554;7.844;2022-10-04T17:44:24;1.15;;;0.93;;
55417;SDS011;41287;47.554;7.844;2022-10-04T17:47:09;1.10;;;1.00;;
55417;SDS011;41287;47.554;7.844;2022-10-04T17:50:38;1.10;;;0.98;;
55417;SDS011;41287;47.554;7.844;2022-10-04T17:53:01;1.10;;;1.00;;
55417;SDS011;41287;47.554;7.844;2022-10-04T17:55:54;1.30;;;1.20;;
55417;SDS011;41287;47.554;7.844;2022-10-04T17:58:21;1.60;;;1.20;;
55417;SDS011;41287;47.554;7.844;2022-10-04T18:01:04;1.10;;;1.00;;
55417;SDS011;41287;47.554;7.844;2022-10-04T18:03:51;1.00;;;0.80;;
55417;SDS011;41287;47.554;7.844;2022-10-04T18:06:26;1.08;;;0.90;;
55417;SDS011;41287;47.554;7.844;2022-10-04T18:09:03;2.25;;;1.00;;
55417;SDS011;41287;47.554;7.844;2022-10-04T18:11:44;1.55;;;0.95;;
55417;SDS011;41287;47.554;7.844;2022-10-04T18:19:35;1.10;;;1.00;;
55417;SDS011;41287;47.554;7.844;2022-10-04T18:22:13;1.13;;;0.80;;
55417;SDS011;41287;47.554;7.844;2022-10-04T18:24:46;1.45;;;0.80;;
55417;SDS011;41287;47.554;7.844;2022-10-04T18:27:37;1.30;;;1.05;;
55417;SDS011;41287;47.554;7.844;2022-10-04T18:30:18;1.45;;;0.90;;
55417;SDS011;41287;47.554;7.844;2022-10-04T18:32:46;1.60;;;1.10;;
55417;SDS011;41287;47.554;7.844;2022-10-04T18:35:28;2.03;;;1.30;;
55417;SDS011;41287;47.554;7.844;2022-10-04T18:38:02;2.05;;;1.38;;
55417;SDS011;41287;47.554;7.844;2022-10-04T18:40:52;2.92;;;1.30;;
55417;SDS011;41287;47.554;7.844;2022-10-04T18:43:51;1.48;;;1.02;;
55417;SDS011;41287;47.554;7.844;2022-10-04T18:46:37;4.60;;;1.08;;
55417;SDS011;41287;47.554;7.844;2022-10-04T18:49:26;1.90;;;1.13;;
55417;SDS011;41287;47.554;7.844;2022-10-04T18:54:37;1.50;;;0.95;;
55417;SDS011;41287;47.554;7.844;2022-10-04T19:03:05;1.40;;;1.15;;
55417;SDS011;41287;47.554;7.844;2022-10-04T19:05:37;2.40;;;1.20;;
55417;SDS011;41287;47.554;7.844;2022-10-04T19:08:29;4.25;;;1.40;;
55417;SDS011;41287;47.554;7.844;2022-10-04T19:11:18;3.35;;;1.20;;
55417;SDS011;41287;47.554;7.844;2022-10-04T19:30:02;3.72;;;1.42;;
55417;SDS011;41287;47.554;7.844;2022-10-04T19:40:57;1.83;;;1.30;;
55417;SDS011;41287;47.554;7.844;2022-10-04T19:49:19;2.45;;;1.10;;
55417;SDS011;41287;47.554;7.844;2022-10-04T19:52:14;2.15;;;1.27;;
55417;SDS011;41287;47.554;7.844;2022-10-04T19:54:46;3.45;;;1.38;;
55417;SDS011;41287;47.554;7.844;2022-10-04T19:57:37;2.92;;;1.17;;
55417;SDS011;41287;47.554;7.844;2022-10-04T20:00:12;1.50;;;1.10;;
55417;SDS011;41287;47.554;7.844;2022-10-04T20:02:39;3.80;;;1.35;;
55417;SDS011;41287;47.554;7.844;2022-10-04T20:05:14;2.10;;;1.30;;
55417;SDS011;41287;47.554;7.844;2022-10-04T20:07:47;3.33;;;1.65;;
55417;SDS011;41287;47.554;7.844;2022-10-04T20:13:14;2.45;;;1.20;;
55417;SDS011;41287;47.554;7.844;2022-10-04T20:26:05;2.53;;;1.08;;
55417;SDS011;41287;47.554;7.844;2022-10-04T20:31:04;3.65;;;1.40;;
55417;SDS011;41287;47.554;7.844;2022-10-04T20:36:07;1.75;;;1.10;;
55417;SDS011;41287;47.554;7.844;2022-10-04T20:38:44;2.03;;;1.17;;
55417;SDS011;41287;47.554;7.844;2022-10-04T20:43:53;2.88;;;1.50;;
55417;SDS011;41287;47.554;7.844;2022-10-04T20:46:23;1.98;;;1.33;;
55417;SDS011;41287;47.554;7.844;2022-10-04T20:48:50;3.17;;;1.40;;
55417;SDS011;41287;47.554;7.844;2022-10-04T20:51:17;2.67;;;1.05;;
55417;SDS011;41287;47.554;7.844;2022-10-04T20:53:43;2.58;;;1.65;;
55417;SDS011;41287;47.554;7.844;2022-10-04T20:58:57;3.05;;;1.60;;
55417;SDS011;41287;47.554;7.844;2022-10-04T21:01:24;1.98;;;1.33;;
55417;SDS011;41287;47.554;7.844;2022-10-04T21:06:55;2.63;;;1.20;;
55417;SDS011;41287;47.554;7.844;2022-10-04T21:09:22;2.03;;;1.30;;
55417;SDS011;41287;47.554;7.844;2022-10-04T21:11:49;5.22;;;1.70;;
55417;SDS011;41287;47.554;7.844;2022-10-04T21:14:23;1.83;;;1.08;;
55417;SDS011;41287;47.554;7.844;2022-10-04T21:16:51;3.28;;;1.30;;
55417;SDS011;41287;47.554;7.844;2022-10-04T21:22:06;2.97;;;1.38;;
55417;SDS011;41287;47.554;7.844;2022-10-04T21:27:24;1.17;;;1.08;;
55417;SDS011;41287;47.554;7.844;2022-10-04T21:29:56;2.78;;;1.55;;
55417;SDS011;41287;47.554;7.844;2022-10-04T21:32:23;2.28;;;1.42;;
55417;SDS011;41287;47.554;7.844;2022-10-04T21:34:49;2.78;;;1.30;;
55417;SDS011;41287;47.554;7.844;2022-10-04T21:37:16;3.30;;;1.55;;
55417;SDS011;41287;47.554;7.844;2022-10-04T21:39:41;3.45;;;1.40;;
55417;SDS011;41287;47.554;7.844;2022-10-04T21:42:07;1.50;;;1.10;;
55417;SDS011;41287;47.554;7.844;2022-10-04T21:44:34;1.77;;;1.10;;
55417;SDS011;41287;47.554;7.844;2022-10-04T21:47:00;2.72;;;1.60;;
55417;SDS011;41287;47.554;7.844;2022-10-04T21:49:25;2.97;;;1.30;;
55417;SDS011;41287;47.554;7.844;2022-10-04T21:51:51;3.70;;;1.50;;
55417;SDS011;41287;47.554;7.844;2022-10-04T21:54:16;1.88;;;1.20;;
55417;SDS011;41287;47.554;7.844;2022-10-04T21:56:42;1.70;;;1.30;;
55417;SDS011;41287;47.554;7.844;2022-10-04T21:59:07;2.15;;;1.25;;
55417;SDS011;41287;47.554;7.844;2022-10-04T22:01:32;3.40;;;0.90;;
55417;SDS011;41287;47.554;7.844;2022-10-04T22:03:58;3.22;;;1.23;;
55417;SDS011;41287;47.554;7.844;2022-10-04T22:06:23;2.88;;;1.35;;
55417;SDS011;41287;47.554;7.844;2022-10-04T22:08:52;3.45;;;1.40;;
55417;SDS011;41287;47.554;7.844;2022-10-04T22:11:17;2.50;;;1.50;;
55417;SDS011;41287;47.554;7.844;2022-10-04T22:13:43;2.78;;;1.40;;
55417;SDS011;41287;47.554;7.844;2022-10-04T22:16:09;1.98;;;1.30;;
55417;SDS011;41287;47.554;7.844;2022-10-04T22:18:34;2.20;;;1.33;;
55417;SDS011;41287;47.554;7.844;2022-10-04T22:21:00;1.50;;;1.10;;
55417;SDS011;41287;47.554;7.844;2022-10-04T22:23:26;3.67;;;1.10;;
55417;SDS011;41287;47.554;7.844;2022-10-04T22:25:53;1.98;;;1.40;;
55417;SDS011;41287;47.554;7.844;2022-10-04T22:28:26;2.75;;;1.10;;
55417;SDS011;41287;47.554;7.844;2022-10-04T22:30:53;3.55;;;1.55;;
55417;SDS011;41287;47.554;7.844;2022-10-04T22:38:51;3.15;;;1.25;;
55417;SDS011;41287;47.554;7.844;2022-10-04T22:41:24;2.53;;;1.42;;
55417;SDS011;41287;47.554;7.844;2022-10-04T22:43:54;2.45;;;1.30;;
55417;SDS011;41287;47.554;7.844;2022-10-04T22:46:21;2.35;;;1.15;;
55417;SDS011;41287;47.554;7.844;2022-10-04T22:48:52;2.60;;;1.27;;
55417;SDS011;41287;47.554;7.844;2022-10-04T22:51:17;4.93;;;1.58;;
55417;SDS011;41287;47.554;7.844;2022-10-04T22:53:44;1.90;;;1.23;;
55417;SDS011;41287;47.554;7.844;2022-10-04T22:56:11;1.90;;;1.17;;
55417;SDS011;41287;47.554;7.844;2022-10-04T22:58:38;1.65;;;1.17;;
55417;SDS011;41287;47.554;7.844;2022-10-04T23:01:09;2.95;;;1.50;;
55417;SDS011;41287;47.554;7.844;2022-10-04T23:03:37;1.95;;;1.30;;
55417;SDS011;41287;47.554;7.844;2022-10-04T23:06:02;2.83;;;1.10;;
55417;SDS011;41287;47.554;7.844;2022-10-04T23:08:28;2.58;;;1.27;;
55417;SDS011;41287;47.554;7.844;2022-10-04T23:10:54;1.95;;;1.40;;
55417;SDS011;41287;47.554;7.844;2022-10-04T23:13:21;3.67;;;1.30;;
55417;SDS011;41287;47.554;7.844;2022-10-04T23:15:48;2.40;;;1.20;;
55417;SDS011;41287;47.554;7.844;2022-10-04T23:18:14;2.50;;;1.65;;
55417;SDS011;41287;47.554;7.844;2022-10-04T23:20:42;1.45;;;1.13;;
55417;SDS011;41287;47.554;7.844;2022-10-04T23:23:12;1.67;;;1.30;;
55417;SDS011;41287;47.554;7.844;2022-10-04T23:25:45;2.25;;;1.30;;
55417;SDS011;41287;47.554;7.844;2022-10-04T23:28:15;1.75;;;1.23;;
55417;SDS011;41287;47.554;7.844;2022-10-04T23:30:58;1.77;;;1.17;;
55417;SDS011;41287;47.554;7.844;2022-10-04T23:33:26;1.58;;;1.20;;
55417;SDS011;41287;47.554;7.844;2022-10-04T23:35:54;1.90;;;1.23;;
55417;SDS011;41287;47.554;7.844;2022-10-04T23:38:21;2.03;;;1.30;;
55417;SDS011;41287;47.554;7.844;2022-10-04T23:40:48;1.33;;;1.17;;
55417;SDS011;41287;47.554;7.844;2022-10-04T23:43:16;2.17;;;1.25;;
55417;SDS011;41287;47.554;7.844;2022-10-04T23:45:44;1.63;;;1.20;;
55417;SDS011;41287;47.554;7.844;2022-10-04T23:48:25;2.55;;;1.40;;
55417;SDS011;41287;47.554;7.844;2022-10-04T23:50:53;1.35;;;1.00;;
55417;SDS011;41287;47.554;7.844;2022-10-04T23:53:25;1.00;;;0.90;;
55417;SDS011;41287;47.554;7.844;2022-10-04T23:55:52;3.03;;;1.25;;
55417;SDS011;41287;47.554;7.844;2022-10-04T23:58:21;2.05;;;1.30;;
